sensor_id;sensor_type;location;lat;lon;timestamp;pressure;altitude;pressure_sealevel;temperature;humidity
27840;BME280;15207;42.182;24.308;2023-04-19T00:00:15;98823.81;;;11.36;100.00
27840;BME280;15207;42.182;24.308;2023-04-19T00:02:41;98813.38;;;11.33;100.00
27840;BME280;15207;42.182;24.308;2023-04-19T00:05:07;98820.56;;;11.33;100.00
27840;BME280;15207;42.182;24.308;2023-04-19T00:07:34;98810.72;;;11.33;100.00
27840;BME280;15207;42.182;24.308;2023-04-19T00:10:00;98807.47;;;11.30;100.00
27840;BME280;15207;42.182;24.308;2023-04-19T00:12:25;98799.41;;;11.30;100.00
27840;BME280;15207;42.182;24.308;2023-04-19T00:14:51;98799.41;;;11.30;100.00
27840;BME280;15207;42.182;24.308;2023-04-19T00:17:16;98803.91;;;11.29;100.00
27840;BME280;15207;42.182;24.308;2023-04-19T00:19:42;98795.03;;;11.29;100.00
27840;BME280;15207;42.182;24.308;2023-04-19T00:22:08;98793.19;;;11.29;100.00
27840;BME280;15207;42.182;24.308;2023-04-19T00:24:34;98789.41;;;11.32;100.00
27840;BME280;15207;42.182;24.308;2023-04-19T00:26:59;98779.66;;;11.31;100.00
27840;BME280;15207;42.182;24.308;2023-04-19T00:29:26;98782.91;;;11.34;100.00
27840;BME280;15207;42.182;24.308;2023-04-19T00:31:51;98781.22;;;11.33;100.00
27840;BME280;15207;42.182;24.308;2023-04-19T00:34:17;98782.34;;;11.31;100.00
27840;BME280;15207;42.182;24.308;2023-04-19T00:36:42;98773.44;;;11.30;100.00
27840;BME280;15207;42.182;24.308;2023-04-19T00:39:08;98774.16;;;11.32;100.00
27840;BME280;15207;42.182;24.308;2023-04-19T00:41:33;98760.19;;;11.29;100.00
27840;BME280;15207;42.182;24.308;2023-04-19T00:43:59;98780.06;;;11.26;100.00
27840;BME280;15207;42.182;24.308;2023-04-19T00:46:25;98762.28;;;11.25;100.00
27840;BME280;15207;42.182;24.308;2023-04-19T00:48:51;98772.88;;;11.27;100.00
27840;BME280;15207;42.182;24.308;2023-04-19T00:51:17;98767.38;;;11.28;100.00
27840;BME280;15207;42.182;24.308;2023-04-19T00:53:43;98769.63;;;11.33;100.00
27840;BME280;15207;42.182;24.308;2023-04-19T00:56:09;98770.06;;;11.28;100.00
27840;BME280;15207;42.182;24.308;2023-04-19T00:58:37;98770.06;;;11.28;100.00
27840;BME280;15207;42.182;24.308;2023-04-19T01:01:03;98768.50;;;11.35;100.00
27840;BME280;15207;42.182;24.308;2023-04-19T01:03:29;98756.66;;;11.28;100.00
27840;BME280;15207;42.182;24.308;2023-04-19T01:05:55;98761.72;;;11.31;100.00
27840;BME280;15207;42.182;24.308;2023-04-19T01:08:21;98757.66;;;11.37;100.00
27840;BME280;15207;42.182;24.308;2023-04-19T01:10:47;98761.75;;;11.41;100.00
27840;BME280;15207;42.182;24.308;2023-04-19T01:13:12;98761.88;;;11.40;100.00
27840;BME280;15207;42.182;24.308;2023-04-19T01:15:38;98752.97;;;11.39;100.00
27840;BME280;15207;42.182;24.308;2023-04-19T01:18:03;98752.31;;;11.27;100.00
27840;BME280;15207;42.182;24.308;2023-04-19T01:20:29;98755.94;;;11.26;100.00
27840;BME280;15207;42.182;24.308;2023-04-19T01:22:54;98749.88;;;11.34;100.00
27840;BME280;15207;42.182;24.308;2023-04-19T01:25:20;98746.38;;;11.33;100.00
27840;BME280;15207;42.182;24.308;2023-04-19T01:27:45;98743.56;;;11.35;100.00
27840;BME280;15207;42.182;24.308;2023-04-19T01:30:11;98746.34;;;11.23;100.00
27840;BME280;15207;42.182;24.308;2023-04-19T01:32:37;98747.06;;;11.26;100.00
27840;BME280;15207;42.182;24.308;2023-04-19T01:35:02;98748.72;;;11.17;100.00
27840;BME280;15207;42.182;24.308;2023-04-19T01:37:28;98744.78;;;11.21;100.00
27840;BME280;15207;42.182;24.308;2023-04-19T01:39:53;98740.84;;;11.15;100.00
27840;BME280;15207;42.182;24.308;2023-04-19T01:42:19;98740.00;;;11.15;100.00
27840;BME280;15207;42.182;24.308;2023-04-19T01:44:45;98745.09;;;11.18;100.00
27840;BME280;15207;42.182;24.308;2023-04-19T01:47:10;98738.88;;;11.17;100.00
27840;BME280;15207;42.182;24.308;2023-04-19T01:49:36;98729.28;;;11.15;100.00
27840;BME280;15207;42.182;24.308;2023-04-19T01:52:01;98729.44;;;11.23;100.00
27840;BME280;15207;42.182;24.308;2023-04-19T01:54:27;98730.84;;;11.27;100.00
27840;BME280;15207;42.182;24.308;2023-04-19T01:56:52;98731.00;;;11.26;100.00
27840;BME280;15207;42.182;24.308;2023-04-19T01:59:18;98727.19;;;11.28;100.00
27840;BME280;15207;42.182;24.308;2023-04-19T02:01:43;98718.28;;;11.18;100.00
27840;BME280;15207;42.182;24.308;2023-04-19T02:04:09;98724.78;;;11.25;100.00
27840;BME280;15207;42.182;24.308;2023-04-19T02:06:34;98721.81;;;11.28;100.00
27840;BME280;15207;42.182;24.308;2023-04-19T02:09:00;98723.09;;;11.24;100.00
27840;BME280;15207;42.182;24.308;2023-04-19T02:11:25;98728.31;;;11.26;100.00
27840;BME280;15207;42.182;24.308;2023-04-19T02:13:51;98720.41;;;11.24;100.00
27840;BME280;15207;42.182;24.308;2023-04-19T02:16:17;98721.09;;;11.16;100.00
27840;BME280;15207;42.182;24.308;2023-04-19T02:18:42;98721.81;;;11.08;100.00
27840;BME280;15207;42.182;24.308;2023-04-19T02:21:09;98718.69;;;11.13;100.00
27840;BME280;15207;42.182;24.308;2023-04-19T02:23:35;98721.78;;;11.18;100.00
27840;BME280;15207;42.182;24.308;2023-04-19T02:26:01;98712.75;;;11.19;100.00
27840;BME280;15207;42.182;24.308;2023-04-19T02:28:30;98714.06;;;11.15;100.00
27840;BME280;15207;42.182;24.308;2023-04-19T02:30:56;98709.13;;;11.20;100.00
27840;BME280;15207;42.182;24.308;2023-04-19T02:33:25;98715.75;;;11.16;100.00
27840;BME280;15207;42.182;24.308;2023-04-19T02:35:51;98709.13;;;11.20;100.00
27840;BME280;15207;42.182;24.308;2023-04-19T02:38:17;98710.81;;;11.21;100.00
27840;BME280;15207;42.182;24.308;2023-04-19T02:40:42;98703.91;;;11.19;100.00
27840;BME280;15207;42.182;24.308;2023-04-19T02:43:08;98701.22;;;11.19;100.00
27840;BME280;15207;42.182;24.308;2023-04-19T02:45:33;98699.09;;;11.22;100.00
27840;BME280;15207;42.182;24.308;2023-04-19T02:47:59;98699.53;;;11.18;100.00
27840;BME280;15207;42.182;24.308;2023-04-19T02:50:26;98698.09;;;11.14;100.00
27840;BME280;15207;42.182;24.308;2023-04-19T02:52:51;98697.25;;;11.13;100.00
27840;BME280;15207;42.182;24.308;2023-04-19T02:55:17;98698.94;;;11.14;100.00
27840;BME280;15207;42.182;24.308;2023-04-19T02:57:43;98696.97;;;11.16;100.00
27840;BME280;15207;42.182;24.308;2023-04-19T03:00:10;98695.13;;;11.17;100.00
27840;BME280;15207;42.182;24.308;2023-04-19T03:02:36;98693.31;;;11.17;100.00
27840;BME280;15207;42.182;24.308;2023-04-19T03:05:03;98692.31;;;11.18;100.00
27840;BME280;15207;42.182;24.308;2023-04-19T03:07:30;98700.50;;;11.17;100.00
27840;BME280;15207;42.182;24.308;2023-04-19T03:09:56;98691.50;;;11.18;100.00
27840;BME280;15207;42.182;24.308;2023-04-19T03:12:22;98687.53;;;11.12;100.00
27840;BME280;15207;42.182;24.308;2023-04-19T03:14:47;98691.34;;;11.09;100.00
27840;BME280;15207;42.182;24.308;2023-04-19T03:17:13;98694.44;;;11.05;100.00
27840;BME280;15207;42.182;24.308;2023-04-19T03:19:39;98687.66;;;11.01;100.00
27840;BME280;15207;42.182;24.308;2023-04-19T03:22:04;98688.50;;;11.01;100.00
27840;BME280;15207;42.182;24.308;2023-04-19T03:24:30;98689.47;;;11.00;100.00
27840;BME280;15207;42.182;24.308;2023-04-19T03:26:56;98682.72;;;11.06;100.00
27840;BME280;15207;42.182;24.308;2023-04-19T03:29:22;98690.47;;;11.09;100.00
27840;BME280;15207;42.182;24.308;2023-04-19T03:31:48;98688.22;;;11.14;100.00
27840;BME280;15207;42.182;24.308;2023-04-19T03:34:14;98692.75;;;11.14;100.00
27840;BME280;15207;42.182;24.308;2023-04-19T03:36:40;98681.31;;;11.11;100.00
27840;BME280;15207;42.182;24.308;2023-04-19T03:39:06;98696.13;;;11.16;100.00
27840;BME280;15207;42.182;24.308;2023-04-19T03:41:32;98694.88;;;11.20;100.00
27840;BME280;15207;42.182;24.308;2023-04-19T03:43:58;98695.84;;;11.19;100.00
27840;BME280;15207;42.182;24.308;2023-04-19T03:46:24;98699.22;;;11.21;100.00
27840;BME280;15207;42.182;24.308;2023-04-19T03:48:49;98691.06;;;11.13;100.00
27840;BME280;15207;42.182;24.308;2023-04-19T03:51:16;98692.88;;;11.12;100.00
27840;BME280;15207;42.182;24.308;2023-04-19T03:53:42;98684.28;;;11.08;100.00
27840;BME280;15207;42.182;24.308;2023-04-19T03:56:08;98683.84;;;11.13;100.00
27840;BME280;15207;42.182;24.308;2023-04-19T03:58:33;98695.00;;;11.18;100.00
27840;BME280;15207;42.182;24.308;2023-04-19T04:00:59;98690.19;;;11.12;100.00
27840;BME280;15207;42.182;24.308;2023-04-19T04:03:25;98689.50;;;11.20;100.00
27840;BME280;15207;42.182;24.308;2023-04-19T04:05:51;98689.50;;;11.10;100.00
27840;BME280;15207;42.182;24.308;2023-04-19T04:08:17;98693.56;;;11.14;100.00
27840;BME280;15207;42.182;24.308;2023-04-19T04:10:43;98700.66;;;11.15;100.00
27840;BME280;15207;42.182;24.308;2023-04-19T04:13:08;98693.88;;;11.21;100.00
27840;BME280;15207;42.182;24.308;2023-04-19T04:15:34;98697.69;;;11.28;100.00
27840;BME280;15207;42.182;24.308;2023-04-19T04:17:59;98697.41;;;11.31;100.00
27840;BME280;15207;42.182;24.308;2023-04-19T04:20:25;98697.69;;;11.28;100.00
27840;BME280;15207;42.182;24.308;2023-04-19T04:22:51;98695.28;;;11.25;100.00
27840;BME280;15207;42.182;24.308;2023-04-19T04:25:17;98699.13;;;11.32;100.00
27840;BME280;15207;42.182;24.308;2023-04-19T04:27:43;98694.88;;;11.40;100.00
27840;BME280;15207;42.182;24.308;2023-04-19T04:30:10;98704.31;;;11.44;100.00
27840;BME280;15207;42.182;24.308;2023-04-19T04:32:36;98697.97;;;11.55;100.00
27840;BME280;15207;42.182;24.308;2023-04-19T04:35:04;98706.56;;;11.58;100.00
27840;BME280;15207;42.182;24.308;2023-04-19T04:37:34;98701.22;;;11.58;100.00
27840;BME280;15207;42.182;24.308;2023-04-19T04:40:00;98701.91;;;11.60;100.00
27840;BME280;15207;42.182;24.308;2023-04-19T04:42:26;98701.75;;;11.52;100.00
27840;BME280;15207;42.182;24.308;2023-04-19T04:44:52;98700.91;;;11.42;100.00
27840;BME280;15207;42.182;24.308;2023-04-19T04:47:19;98702.22;;;11.57;100.00
27840;BME280;15207;42.182;24.308;2023-04-19T04:49:45;98710.25;;;11.57;100.00
27840;BME280;15207;42.182;24.308;2023-04-19T04:52:11;98697.25;;;11.62;100.00
27840;BME280;15207;42.182;24.308;2023-04-19T04:54:36;98694.56;;;11.72;100.00
27840;BME280;15207;42.182;24.308;2023-04-19T04:57:02;98688.47;;;11.80;100.00
27840;BME280;15207;42.182;24.308;2023-04-19T04:59:28;98697.16;;;12.02;100.00
27840;BME280;15207;42.182;24.308;2023-04-19T05:01:54;98701.53;;;12.13;100.00
27840;BME280;15207;42.182;24.308;2023-04-19T05:04:19;98706.72;;;12.24;100.00
27840;BME280;15207;42.182;24.308;2023-04-19T05:06:45;98705.25;;;12.40;100.00
27840;BME280;15207;42.182;24.308;2023-04-19T05:09:10;98698.75;;;12.42;100.00
27840;BME280;15207;42.182;24.308;2023-04-19T05:11:36;98704.94;;;12.53;100.00
27840;BME280;15207;42.182;24.308;2023-04-19T05:14:02;98700.44;;;12.43;99.61
27840;BME280;15207;42.182;24.308;2023-04-19T05:16:27;98709.44;;;12.52;100.00
27840;BME280;15207;42.182;24.308;2023-04-19T05:18:53;98706.03;;;12.60;99.75
27840;BME280;15207;42.182;24.308;2023-04-19T05:21:20;98704.47;;;12.57;97.54
27840;BME280;15207;42.182;24.308;2023-04-19T05:23:46;98707.28;;;12.66;98.05
27840;BME280;15207;42.182;24.308;2023-04-19T05:26:17;98705.06;;;12.51;98.30
27840;BME280;15207;42.182;24.308;2023-04-19T05:28:45;98702.41;;;12.51;97.43
27840;BME280;15207;42.182;24.308;2023-04-19T05:31:11;98707.44;;;12.54;97.84
27840;BME280;15207;42.182;24.308;2023-04-19T05:33:37;98702.41;;;12.51;97.67
27840;BME280;15207;42.182;24.308;2023-04-19T05:36:03;98704.47;;;12.57;98.92
27840;BME280;15207;42.182;24.308;2023-04-19T05:38:29;98700.66;;;12.60;99.81
27840;BME280;15207;42.182;24.308;2023-04-19T05:40:55;98705.63;;;12.55;97.30
27840;BME280;15207;42.182;24.308;2023-04-19T05:43:21;98701.41;;;12.52;98.13
27840;BME280;15207;42.182;24.308;2023-04-19T05:45:48;98708.97;;;12.67;98.95
27840;BME280;15207;42.182;24.308;2023-04-19T05:48:14;98708.47;;;12.81;99.35
27840;BME280;15207;42.182;24.308;2023-04-19T05:50:39;98711.16;;;12.81;98.41
27840;BME280;15207;42.182;24.308;2023-04-19T05:53:05;98711.47;;;12.96;99.31
27840;BME280;15207;42.182;24.308;2023-04-19T05:55:31;98710.47;;;12.98;97.66
27840;BME280;15207;42.182;24.308;2023-04-19T05:57:59;98705.78;;;13.00;98.03
27840;BME280;15207;42.182;24.308;2023-04-19T06:00:25;98713.38;;;13.04;96.45
27840;BME280;15207;42.182;24.308;2023-04-19T06:02:50;98706.47;;;13.02;95.92
27840;BME280;15207;42.182;24.308;2023-04-19T06:05:16;98704.53;;;12.94;96.66
27840;BME280;15207;42.182;24.308;2023-04-19T06:07:41;98712.84;;;13.01;96.89
27840;BME280;15207;42.182;24.308;2023-04-19T06:10:08;98710.88;;;13.03;96.68
27840;BME280;15207;42.182;24.308;2023-04-19T06:12:33;98716.72;;;13.16;97.15
27840;BME280;15207;42.182;24.308;2023-04-19T06:14:59;98716.84;;;13.15;95.68
27840;BME280;15207;42.182;24.308;2023-04-19T06:17:24;98709.19;;;13.20;97.50
27840;BME280;15207;42.182;24.308;2023-04-19T06:19:51;98710.88;;;13.21;97.84
27840;BME280;15207;42.182;24.308;2023-04-19T06:22:17;98710.56;;;13.24;95.77
27840;BME280;15207;42.182;24.308;2023-04-19T06:24:46;98713.63;;;13.29;96.96
27840;BME280;15207;42.182;24.308;2023-04-19T06:27:13;98713.88;;;13.36;96.50
27840;BME280;15207;42.182;24.308;2023-04-19T06:29:39;98716.03;;;13.32;93.94
27840;BME280;15207;42.182;24.308;2023-04-19T06:32:05;98716.72;;;13.34;94.62
27840;BME280;15207;42.182;24.308;2023-04-19T06:34:30;98718.25;;;13.37;95.29
27840;BME280;15207;42.182;24.308;2023-04-19T06:36:56;98718.41;;;13.35;95.60
27840;BME280;15207;42.182;24.308;2023-04-19T06:39:21;98714.00;;;13.16;92.81
27840;BME280;15207;42.182;24.308;2023-04-19T06:41:47;98721.84;;;13.28;96.38
27840;BME280;15207;42.182;24.308;2023-04-19T06:44:12;98723.81;;;13.35;96.77
27840;BME280;15207;42.182;24.308;2023-04-19T06:46:38;98717.19;;;13.30;96.47
27840;BME280;15207;42.182;24.308;2023-04-19T06:49:04;98732.16;;;13.32;95.67
27840;BME280;15207;42.182;24.308;2023-04-19T06:51:29;98724.38;;;13.29;94.54
27840;BME280;15207;42.182;24.308;2023-04-19T06:53:55;98718.25;;;13.37;96.61
27840;BME280;15207;42.182;24.308;2023-04-19T06:56:40;98719.63;;;13.41;96.27
27840;BME280;15207;42.182;24.308;2023-04-19T06:59:06;98726.66;;;13.52;97.04
27840;BME280;15207;42.182;24.308;2023-04-19T07:01:32;98729.66;;;13.49;94.89
27840;BME280;15207;42.182;24.308;2023-04-19T07:03:57;98727.09;;;13.47;94.95
27840;BME280;15207;42.182;24.308;2023-04-19T07:06:23;98729.81;;;13.47;94.43
27840;BME280;15207;42.182;24.308;2023-04-19T07:08:49;98730.72;;;13.38;93.64
27840;BME280;15207;42.182;24.308;2023-04-19T07:11:14;98730.88;;;13.55;94.78
27840;BME280;15207;42.182;24.308;2023-04-19T07:13:40;98734.09;;;13.58;95.24
27840;BME280;15207;42.182;24.308;2023-04-19T07:16:06;98730.56;;;13.58;94.56
27840;BME280;15207;42.182;24.308;2023-04-19T07:18:32;98733.44;;;13.56;94.18
27840;BME280;15207;42.182;24.308;2023-04-19T07:20:57;98735.88;;;13.49;92.25
27840;BME280;15207;42.182;24.308;2023-04-19T07:23:23;98731.41;;;13.58;93.47
27840;BME280;15207;42.182;24.308;2023-04-19T07:25:48;98737.19;;;13.64;93.95
27840;BME280;15207;42.182;24.308;2023-04-19T07:28:14;98740.94;;;13.71;93.55
27840;BME280;15207;42.182;24.308;2023-04-19T07:30:40;98739.47;;;13.77;93.46
27840;BME280;15207;42.182;24.308;2023-04-19T07:33:06;98738.00;;;13.82;93.09
27840;BME280;15207;42.182;24.308;2023-04-19T07:35:33;98741.16;;;13.78;91.30
27840;BME280;15207;42.182;24.308;2023-04-19T07:38:00;98730.47;;;13.86;92.68
27840;BME280;15207;42.182;24.308;2023-04-19T07:40:25;98730.00;;;13.91;92.95
27840;BME280;15207;42.182;24.308;2023-04-19T07:42:51;98750.56;;;14.00;95.42
27840;BME280;15207;42.182;24.308;2023-04-19T07:45:19;98743.56;;;14.07;93.93
27840;BME280;15207;42.182;24.308;2023-04-19T07:47:45;98740.91;;;14.15;92.87
27840;BME280;15207;42.182;24.308;2023-04-19T07:50:10;98738.22;;;14.15;90.01
27840;BME280;15207;42.182;24.308;2023-04-19T07:52:36;98736.81;;;14.30;89.71
27840;BME280;15207;42.182;24.308;2023-04-19T07:55:02;98734.00;;;14.39;90.53
27840;BME280;15207;42.182;24.308;2023-04-19T07:57:28;98739.47;;;14.56;90.74
27840;BME280;15207;42.182;24.308;2023-04-19T07:59:54;98742.19;;;14.56;88.85
27840;BME280;15207;42.182;24.308;2023-04-19T08:04:48;98729.22;;;14.68;86.28
27840;BME280;15207;42.182;24.308;2023-04-19T08:07:16;98732.72;;;14.78;87.05
27840;BME280;15207;42.182;24.308;2023-04-19T08:09:41;98732.72;;;14.78;84.06
27840;BME280;15207;42.182;24.308;2023-04-19T08:12:07;98736.09;;;14.89;83.70
27840;BME280;15207;42.182;24.308;2023-04-19T08:14:32;98732.06;;;14.93;81.97
27840;BME280;15207;42.182;24.308;2023-04-19T08:16:58;98728.56;;;15.09;83.29
27840;BME280;15207;42.182;24.308;2023-04-19T08:19:23;98723.53;;;15.14;82.75
27840;BME280;15207;42.182;24.308;2023-04-19T08:21:49;98731.47;;;15.24;81.47
27840;BME280;15207;42.182;24.308;2023-04-19T08:24:15;98731.50;;;15.41;82.47
27840;BME280;15207;42.182;24.308;2023-04-19T08:26:40;98719.38;;;15.45;80.77
27840;BME280;15207;42.182;24.308;2023-04-19T08:29:06;98721.22;;;15.61;79.30
27840;BME280;15207;42.182;24.308;2023-04-19T08:31:32;98720.03;;;15.89;78.17
27840;BME280;15207;42.182;24.308;2023-04-19T08:33:57;98712.78;;;16.14;78.36
27840;BME280;15207;42.182;24.308;2023-04-19T08:36:24;98714.75;;;16.29;72.87
27840;BME280;15207;42.182;24.308;2023-04-19T08:38:51;98707.28;;;16.47;74.60
27840;BME280;15207;42.182;24.308;2023-04-19T08:41:17;98705.69;;;16.61;72.67
27840;BME280;15207;42.182;24.308;2023-04-19T08:43:44;98705.44;;;16.79;71.31
27840;BME280;15207;42.182;24.308;2023-04-19T08:46:12;98706.44;;;16.87;70.14
27840;BME280;15207;42.182;24.308;2023-04-19T08:48:38;98699.72;;;16.83;69.33
27840;BME280;15207;42.182;24.308;2023-04-19T08:51:05;98700.53;;;16.83;69.08
27840;BME280;15207;42.182;24.308;2023-04-19T08:53:33;98700.03;;;16.79;68.06
27840;BME280;15207;42.182;24.308;2023-04-19T08:56:00;98692.41;;;16.83;67.12
27840;BME280;15207;42.182;24.308;2023-04-19T08:58:26;98696.47;;;16.87;65.65
27840;BME280;15207;42.182;24.308;2023-04-19T09:00:56;98684.44;;;16.90;66.34
27840;BME280;15207;42.182;24.308;2023-04-19T09:03:22;98687.59;;;17.02;67.68
27840;BME280;15207;42.182;24.308;2023-04-19T09:05:48;98685.44;;;16.97;65.41
27840;BME280;15207;42.182;24.308;2023-04-19T09:08:42;98683.03;;;17.02;64.51
27840;BME280;15207;42.182;24.308;2023-04-19T09:11:08;98684.03;;;17.01;66.48
27840;BME280;15207;42.182;24.308;2023-04-19T09:13:34;98681.09;;;17.20;65.99
27840;BME280;15207;42.182;24.308;2023-04-19T09:16:03;98676.16;;;17.23;61.08
27840;BME280;15207;42.182;24.308;2023-04-19T09:18:29;98669.00;;;17.30;64.57
27840;BME280;15207;42.182;24.308;2023-04-19T09:20:54;98675.41;;;17.53;63.49
27840;BME280;15207;42.182;24.308;2023-04-19T09:23:24;98673.84;;;17.58;64.09
27840;BME280;15207;42.182;24.308;2023-04-19T09:25:58;98679.84;;;17.69;59.33
27840;BME280;15207;42.182;24.308;2023-04-19T09:28:28;98671.56;;;17.70;61.38
27840;BME280;15207;42.182;24.308;2023-04-19T09:30:55;98667.00;;;17.86;58.53
27840;BME280;15207;42.182;24.308;2023-04-19T09:35:57;98657.81;;;18.26;59.10
27840;BME280;15207;42.182;24.308;2023-04-19T09:38:23;98666.22;;;18.16;54.69
27840;BME280;15207;42.182;24.308;2023-04-19T09:40:49;98669.22;;;18.21;54.57
27840;BME280;15207;42.182;24.308;2023-04-19T09:43:24;98659.28;;;18.43;55.11
27840;BME280;15207;42.182;24.308;2023-04-19T09:45:50;98662.63;;;18.75;54.07
27840;BME280;15207;42.182;24.308;2023-04-19T09:48:16;98647.31;;;19.05;52.19
27840;BME280;15207;42.182;24.308;2023-04-19T09:50:52;98656.69;;;19.46;49.50
27840;BME280;15207;42.182;24.308;2023-04-19T09:53:20;98647.28;;;19.70;49.27
27840;BME280;15207;42.182;24.308;2023-04-19T09:55:46;98645.72;;;20.11;49.73
27840;BME280;15207;42.182;24.308;2023-04-19T09:58:13;98644.22;;;20.44;46.69
27840;BME280;15207;42.182;24.308;2023-04-19T10:00:47;98640.50;;;20.58;47.35
27840;BME280;15207;42.182;24.308;2023-04-19T10:03:14;98633.59;;;20.56;47.43
27840;BME280;15207;42.182;24.308;2023-04-19T10:05:41;98633.19;;;20.59;46.20
27840;BME280;15207;42.182;24.308;2023-04-19T10:08:09;98635.38;;;20.84;45.41
27840;BME280;15207;42.182;24.308;2023-04-19T10:10:35;98631.19;;;20.81;45.07
27840;BME280;15207;42.182;24.308;2023-04-19T10:13:03;98625.31;;;20.84;44.88
27840;BME280;15207;42.182;24.308;2023-04-19T10:15:31;98629.38;;;20.95;45.26
27840;BME280;15207;42.182;24.308;2023-04-19T10:17:57;98620.53;;;20.93;45.26
27840;BME280;15207;42.182;24.308;2023-04-19T10:20:25;98626.00;;;20.86;43.52
27840;BME280;15207;42.182;24.308;2023-04-19T10:22:54;98621.31;;;20.67;42.75
27840;BME280;15207;42.182;24.308;2023-04-19T10:25:27;98619.84;;;20.64;44.64
27840;BME280;15207;42.182;24.308;2023-04-19T10:27:55;98614.22;;;20.79;41.05
27840;BME280;15207;42.182;24.308;2023-04-19T10:30:21;98626.63;;;20.95;41.88
27840;BME280;15207;42.182;24.308;2023-04-19T10:32:56;98613.28;;;21.07;42.87
27840;BME280;15207;42.182;24.308;2023-04-19T10:35:36;98607.03;;;21.34;43.33
27840;BME280;15207;42.182;24.308;2023-04-19T10:38:10;98620.19;;;21.30;40.71
27840;BME280;15207;42.182;24.308;2023-04-19T10:40:57;98604.69;;;21.04;39.69
27840;BME280;15207;42.182;24.308;2023-04-19T10:43:34;98606.34;;;20.98;41.99
27840;BME280;15207;42.182;24.308;2023-04-19T10:48:40;98600.50;;;21.21;41.54
27840;BME280;15207;42.182;24.308;2023-04-19T10:51:18;98599.25;;;21.31;40.66
27840;BME280;15207;42.182;24.308;2023-04-19T10:53:54;98589.84;;;21.26;41.08
27840;BME280;15207;42.182;24.308;2023-04-19T11:01:46;98586.88;;;21.62;37.94
27840;BME280;15207;42.182;24.308;2023-04-19T11:04:13;98587.28;;;21.65;40.10
27840;BME280;15207;42.182;24.308;2023-04-19T11:09:33;98576.44;;;21.72;39.42
27840;BME280;15207;42.182;24.308;2023-04-19T11:12:00;98571.19;;;21.77;38.26
27840;BME280;15207;42.182;24.308;2023-04-19T11:14:33;98573.47;;;21.67;39.07
27840;BME280;15207;42.182;24.308;2023-04-19T11:17:02;98576.22;;;21.74;39.83
27840;BME280;15207;42.182;24.308;2023-04-19T11:19:28;98573.69;;;21.72;37.94
27840;BME280;15207;42.182;24.308;2023-04-19T11:21:57;98563.44;;;21.74;37.12
27840;BME280;15207;42.182;24.308;2023-04-19T11:24:23;98561.13;;;21.71;37.00
27840;BME280;15207;42.182;24.308;2023-04-19T11:26:48;98560.72;;;21.74;38.85
27840;BME280;15207;42.182;24.308;2023-04-19T11:29:14;98560.25;;;21.71;36.00
27840;BME280;15207;42.182;24.308;2023-04-19T11:31:42;98564.03;;;21.70;38.23
27840;BME280;15207;42.182;24.308;2023-04-19T11:34:08;98557.78;;;21.56;37.35
27840;BME280;15207;42.182;24.308;2023-04-19T11:36:33;98558.84;;;21.61;38.80
27840;BME280;15207;42.182;24.308;2023-04-19T11:39:03;98564.88;;;21.63;38.14
27840;BME280;15207;42.182;24.308;2023-04-19T11:41:37;98560.50;;;21.56;36.39
27840;BME280;15207;42.182;24.308;2023-04-19T11:44:03;98552.13;;;21.50;37.29
27840;BME280;15207;42.182;24.308;2023-04-19T11:46:29;98568.66;;;21.42;40.14
27840;BME280;15207;42.182;24.308;2023-04-19T11:48:54;98561.56;;;21.61;39.79
27840;BME280;15207;42.182;24.308;2023-04-19T11:51:20;98557.13;;;21.60;37.92
27840;BME280;15207;42.182;24.308;2023-04-19T11:53:46;98554.00;;;21.63;38.71
27840;BME280;15207;42.182;24.308;2023-04-19T11:56:11;98561.97;;;21.45;39.81
27840;BME280;15207;42.182;24.308;2023-04-19T11:58:46;98583.31;;;21.00;41.75
27840;BME280;15207;42.182;24.308;2023-04-19T12:01:18;98567.47;;;20.00;49.02
27840;BME280;15207;42.182;24.308;2023-04-19T12:06:12;98581.09;;;18.40;57.77
27840;BME280;15207;42.182;24.308;2023-04-19T12:08:42;98585.63;;;17.49;61.61
27840;BME280;15207;42.182;24.308;2023-04-19T12:11:08;98589.72;;;17.30;61.68
27840;BME280;15207;42.182;24.308;2023-04-19T12:13:34;98587.56;;;16.93;63.78
27840;BME280;15207;42.182;24.308;2023-04-19T12:16:00;98592.06;;;16.78;63.28
27840;BME280;15207;42.182;24.308;2023-04-19T12:18:27;98601.22;;;16.45;63.47
27840;BME280;15207;42.182;24.308;2023-04-19T12:20:52;98598.16;;;16.08;65.27
27840;BME280;15207;42.182;24.308;2023-04-19T12:23:19;98598.19;;;15.92;65.75
27840;BME280;15207;42.182;24.308;2023-04-19T12:25:47;98604.84;;;15.72;65.99
27840;BME280;15207;42.182;24.308;2023-04-19T12:28:14;98593.03;;;15.73;68.15
27840;BME280;15207;42.182;24.308;2023-04-19T12:30:40;98589.66;;;15.63;68.96
27840;BME280;15207;42.182;24.308;2023-04-19T12:33:07;98579.91;;;15.62;70.47
27840;BME280;15207;42.182;24.308;2023-04-19T12:35:33;98598.09;;;15.60;71.00
27840;BME280;15207;42.182;24.308;2023-04-19T12:37:59;98582.47;;;15.30;73.43
27840;BME280;15207;42.182;24.308;2023-04-19T12:40:26;98579.75;;;15.47;73.78
27840;BME280;15207;42.182;24.308;2023-04-19T12:42:53;98594.56;;;15.51;72.14
27840;BME280;15207;42.182;24.308;2023-04-19T12:45:19;98588.16;;;15.60;74.21
27840;BME280;15207;42.182;24.308;2023-04-19T12:47:46;98572.78;;;15.61;71.34
27840;BME280;15207;42.182;24.308;2023-04-19T12:50:13;98585.56;;;15.76;69.59
27840;BME280;15207;42.182;24.308;2023-04-19T12:52:39;98578.34;;;15.76;69.99
27840;BME280;15207;42.182;24.308;2023-04-19T12:55:06;98587.13;;;15.62;70.39
27840;BME280;15207;42.182;24.308;2023-04-19T12:57:32;98586.09;;;15.79;70.28
27840;BME280;15207;42.182;24.308;2023-04-19T12:59:57;98589.50;;;15.65;70.04